LSP082 SCCI-SCEL
Flight info
| Callsign | LSP082 |
|---|---|
| Flight time | 2h 28m |
| Altitude | 34000 |
| Route | SIRUN4A SIRUN UQ802 EROLO EROLO2D |
| Aircraft | B77W/H-SDE1E2E3FGHIJ2J3J4J5M1RWXY/LB1D1 |
Departure
| Time | 2026-05-08 03:22 |
|---|---|
| Airport | President Carlos Ibáñez International Airport (SCCI) |
Arrival
| Time | 2026-05-08 05:51 |
|---|---|
| Airport | Comodoro Arturo Merino Benítez International Airport (SCEL) |
| Time | Latitude | Longitude | Altitude | Speed | Heading |
|---|---|---|---|---|---|
| 2026-05-08 03:00 | -53.00445 | -70.84670 | 138 ft | 0 kts | 225° |
| 2026-05-08 03:13 | -53.00445 | -70.84669 | 139 ft | 1 kts | 225° |
| 2026-05-08 03:14 | -53.00430 | -70.84645 | 164 ft | 3 kts | 220° |
| 2026-05-08 03:14 | -53.00416 | -70.84626 | 166 ft | 3 kts | 209° |
| 2026-05-08 03:14 | -53.00408 | -70.84622 | 166 ft | 3 kts | 170° |
| 2026-05-08 03:14 | -53.00393 | -70.84630 | 166 ft | 3 kts | 106° |
| 2026-05-08 03:15 | -53.00394 | -70.84659 | 166 ft | 3 kts | 73° |
| 2026-05-08 03:15 | -53.00399 | -70.84693 | 166 ft | 2 kts | 89° |
| 2026-05-08 03:15 | -53.00399 | -70.84695 | 166 ft | 0 kts | 90° |
| 2026-05-08 03:16 | -53.00399 | -70.84688 | 166 ft | 1 kts | 90° |
| 2026-05-08 03:17 | -53.00398 | -70.84668 | 166 ft | 3 kts | 83° |
| 2026-05-08 03:17 | -53.00387 | -70.84610 | 166 ft | 7 kts | 74° |
| 2026-05-08 03:17 | -53.00380 | -70.84503 | 166 ft | 11 kts | 88° |
| 2026-05-08 03:17 | -53.00360 | -70.84390 | 166 ft | 11 kts | 30° |
| 2026-05-08 03:18 | -53.00283 | -70.84377 | 164 ft | 11 kts | 5° |
| 2026-05-08 03:18 | -53.00247 | -70.84281 | 163 ft | 11 kts | 88° |
| 2026-05-08 03:18 | -53.00244 | -70.84149 | 163 ft | 11 kts | 88° |
| 2026-05-08 03:18 | -53.00242 | -70.84017 | 163 ft | 11 kts | 88° |
| 2026-05-08 03:19 | -53.00240 | -70.83885 | 166 ft | 11 kts | 88° |
| 2026-05-08 03:19 | -53.00237 | -70.83753 | 166 ft | 11 kts | 89° |
| 2026-05-08 03:19 | -53.00236 | -70.83622 | 166 ft | 11 kts | 89° |
| 2026-05-08 03:19 | -53.00235 | -70.83490 | 166 ft | 11 kts | 85° |
| 2026-05-08 03:20 | -53.00179 | -70.83423 | 166 ft | 12 kts | 1° |
| 2026-05-08 03:20 | -53.00159 | -70.83422 | 166 ft | 0 kts | 360° |
| 2026-05-08 03:20 | -53.00158 | -70.83422 | 166 ft | 2 kts | 360° |
| 2026-05-08 03:21 | -53.00121 | -70.83423 | 166 ft | 9 kts | 360° |
| 2026-05-08 03:21 | -53.00057 | -70.83465 | 165 ft | 11 kts | 288° |
| 2026-05-08 03:21 | -53.00067 | -70.83594 | 164 ft | 11 kts | 270° |
| 2026-05-08 03:21 | -53.00068 | -70.83769 | 165 ft | 33 kts | 269° |
| 2026-05-08 03:22 | -53.00080 | -70.84617 | 166 ft | 113 kts | 269° |
| 2026-05-08 03:22 | -53.00101 | -70.86311 | 168 ft | 176 kts | 269° |
| 2026-05-08 03:22 | -53.00103 | -70.88472 | 705 ft | 184 kts | 269° |
| 2026-05-08 03:22 | -52.99831 | -70.90531 | 1445 ft | 188 kts | 304° |
| 2026-05-08 03:23 | -52.98860 | -70.92042 | 2076 ft | 199 kts | 319° |
| 2026-05-08 03:23 | -52.97751 | -70.93685 | 2389 ft | 228 kts | 316° |
| 2026-05-08 03:23 | -52.96550 | -70.95610 | 2905 ft | 248 kts | 314° |
| 2026-05-08 03:23 | -52.95312 | -70.97695 | 3654 ft | 259 kts | 313° |
| 2026-05-08 03:24 | -52.94053 | -70.99900 | 4485 ft | 267 kts | 313° |
| 2026-05-08 03:24 | -52.92776 | -71.02185 | 5410 ft | 272 kts | 312° |
| 2026-05-08 03:24 | -52.91483 | -71.04517 | 6319 ft | 277 kts | 312° |
| 2026-05-08 03:24 | -52.90170 | -71.06892 | 7195 ft | 282 kts | 313° |
| 2026-05-08 03:25 | -52.88813 | -71.09261 | 8070 ft | 285 kts | 314° |
| 2026-05-08 03:25 | -52.87422 | -71.11609 | 8945 ft | 287 kts | 315° |
| 2026-05-08 03:25 | -52.86009 | -71.13981 | 9861 ft | 291 kts | 315° |
| 2026-05-08 03:25 | -52.84573 | -71.16396 | 10585 ft | 300 kts | 315° |
| 2026-05-08 03:26 | -52.83046 | -71.18961 | 10842 ft | 327 kts | 315° |
| 2026-05-08 03:26 | -52.81388 | -71.21751 | 11064 ft | 354 kts | 315° |
| 2026-05-08 03:26 | -52.79609 | -71.24748 | 11535 ft | 372 kts | 315° |
| 2026-05-08 03:26 | -52.77772 | -71.27842 | 12392 ft | 381 kts | 315° |
| 2026-05-08 03:27 | -52.75928 | -71.30946 | 13472 ft | 385 kts | 315° |
| 2026-05-08 03:27 | -52.74033 | -71.34128 | 14469 ft | 392 kts | 315° |
| 2026-05-08 03:27 | -52.72103 | -71.37352 | 15429 ft | 397 kts | 316° |
| 2026-05-08 03:27 | -52.70086 | -71.40499 | 16439 ft | 400 kts | 318° |
| 2026-05-08 03:28 | -52.68007 | -71.43588 | 17450 ft | 405 kts | 318° |
| 2026-05-08 03:28 | -52.65887 | -71.46690 | 18417 ft | 410 kts | 318° |
| 2026-05-08 03:28 | -52.63739 | -71.49834 | 19222 ft | 416 kts | 317° |
| 2026-05-08 03:28 | -52.61553 | -71.53045 | 19809 ft | 428 kts | 317° |
| 2026-05-08 03:29 | -52.59305 | -71.56361 | 20402 ft | 438 kts | 317° |
| 2026-05-08 03:29 | -52.57013 | -71.59749 | 21023 ft | 447 kts | 316° |
| 2026-05-08 03:29 | -52.54676 | -71.63206 | 21660 ft | 457 kts | 316° |
| 2026-05-08 03:29 | -52.52288 | -71.66737 | 22243 ft | 467 kts | 316° |
| 2026-05-08 03:30 | -52.47368 | -71.73998 | 23457 ft | 484 kts | 315° |
| 2026-05-08 03:30 | -52.42267 | -71.81498 | 24557 ft | 499 kts | 315° |
| 2026-05-08 03:31 | -52.37037 | -71.89157 | 25660 ft | 508 kts | 314° |
| 2026-05-08 03:31 | -52.31724 | -71.96911 | 26870 ft | 515 kts | 313° |
| 2026-05-08 03:32 | -52.29074 | -72.00773 | 27452 ft | 519 kts | 313° |
| 2026-05-08 03:32 | -52.26372 | -72.04703 | 28019 ft | 522 kts | 313° |
| 2026-05-08 03:32 | -52.23646 | -72.08661 | 28531 ft | 526 kts | 313° |
| 2026-05-08 03:32 | -52.20897 | -72.12645 | 29051 ft | 530 kts | 313° |
| 2026-05-08 03:33 | -52.18135 | -72.16646 | 29520 ft | 533 kts | 313° |
| 2026-05-08 03:33 | -52.15351 | -72.20676 | 29969 ft | 536 kts | 313° |
| 2026-05-08 03:33 | -52.12549 | -72.24725 | 30411 ft | 539 kts | 313° |
| 2026-05-08 03:33 | -52.09745 | -72.28770 | 30881 ft | 539 kts | 313° |
| 2026-05-08 03:34 | -52.06946 | -72.32798 | 31445 ft | 536 kts | 313° |
| 2026-05-08 03:34 | -52.04163 | -72.36794 | 32036 ft | 532 kts | 313° |
| 2026-05-08 03:34 | -52.01392 | -72.40770 | 32582 ft | 530 kts | 313° |
| 2026-05-08 03:34 | -51.98633 | -72.44724 | 33111 ft | 528 kts | 313° |
| 2026-05-08 03:35 | -51.95881 | -72.48663 | 33592 ft | 527 kts | 313° |
| 2026-05-08 03:35 | -51.93131 | -72.52592 | 34058 ft | 525 kts | 313° |
| 2026-05-08 03:35 | -51.90428 | -72.56449 | 34398 ft | 527 kts | 313° |
| 2026-05-08 03:35 | -51.87673 | -72.60375 | 34647 ft | 528 kts | 313° |
| 2026-05-08 03:36 | -51.84910 | -72.64255 | 35112 ft | 525 kts | 315° |
| 2026-05-08 03:36 | -51.82010 | -72.67825 | 35646 ft | 524 kts | 320° |
| 2026-05-08 03:36 | -51.78907 | -72.70933 | 36131 ft | 523 kts | 324° |
| 2026-05-08 03:36 | -51.75769 | -72.73878 | 36609 ft | 521 kts | 324° |
| 2026-05-08 03:37 | -51.72633 | -72.76814 | 36970 ft | 520 kts | 324° |
| 2026-05-08 03:37 | -51.69515 | -72.79747 | 37343 ft | 519 kts | 324° |
| 2026-05-08 03:37 | -51.66405 | -72.82695 | 37714 ft | 518 kts | 324° |
| 2026-05-08 03:37 | -51.63308 | -72.85646 | 38063 ft | 517 kts | 323° |
| 2026-05-08 03:38 | -51.60218 | -72.88596 | 38338 ft | 516 kts | 323° |
| 2026-05-08 03:38 | -51.54027 | -72.94504 | 38365 ft | 517 kts | 323° |
| 2026-05-08 03:39 | -51.47858 | -73.00357 | 38352 ft | 514 kts | 323° |
| 2026-05-08 03:39 | -51.41708 | -73.06176 | 38355 ft | 513 kts | 323° |
| 2026-05-08 03:40 | -51.35557 | -73.11976 | 38355 ft | 512 kts | 323° |
| 2026-05-08 03:40 | -51.29549 | -73.17626 | 38356 ft | 511 kts | 323° |
| 2026-05-08 03:41 | -51.23412 | -73.23373 | 38369 ft | 512 kts | 323° |
| 2026-05-08 03:41 | -51.17251 | -73.29123 | 38371 ft | 514 kts | 323° |
| 2026-05-08 03:42 | -51.11061 | -73.34881 | 38372 ft | 516 kts | 323° |
| 2026-05-08 03:42 | -51.04855 | -73.40636 | 38371 ft | 516 kts | 323° |
| 2026-05-08 03:43 | -50.98640 | -73.46384 | 38378 ft | 517 kts | 323° |
| 2026-05-08 03:43 | -50.92451 | -73.52091 | 38369 ft | 517 kts | 323° |
| 2026-05-08 03:44 | -50.86225 | -73.57812 | 38352 ft | 517 kts | 323° |
| 2026-05-08 03:44 | -50.79997 | -73.63518 | 38358 ft | 516 kts | 323° |
| 2026-05-08 03:45 | -50.73789 | -73.69187 | 38370 ft | 515 kts | 323° |
| 2026-05-08 03:45 | -50.67590 | -73.74832 | 38354 ft | 514 kts | 323° |
| 2026-05-08 03:46 | -50.61402 | -73.80450 | 38351 ft | 513 kts | 322° |
| 2026-05-08 03:46 | -50.55213 | -73.86050 | 38351 ft | 513 kts | 322° |
| 2026-05-08 03:47 | -50.49022 | -73.91641 | 38342 ft | 513 kts | 322° |
| 2026-05-08 03:47 | -50.42836 | -73.97206 | 38356 ft | 512 kts | 322° |
| 2026-05-08 03:48 | -50.36175 | -74.01491 | 38358 ft | 531 kts | 342° |
| 2026-05-08 03:48 | -50.28708 | -74.02114 | 38363 ft | 545 kts | 1° |
| 2026-05-08 03:49 | -50.21118 | -74.00923 | 38347 ft | 548 kts | 2° |
| 2026-05-08 03:49 | -50.13561 | -73.99735 | 38345 ft | 551 kts | 1° |
| 2026-05-08 03:50 | -50.05914 | -73.98674 | 38347 ft | 552 kts | 1° |
| 2026-05-08 03:50 | -49.98244 | -73.97676 | 38358 ft | 553 kts | 0° |
| 2026-05-08 03:51 | -49.90566 | -73.96680 | 38351 ft | 554 kts | 0° |
| 2026-05-08 03:51 | -49.82875 | -73.95675 | 38351 ft | 555 kts | 1° |
| 2026-05-08 03:52 | -49.75181 | -73.94664 | 38311 ft | 549 kts | 1° |
| 2026-05-08 03:52 | -49.67640 | -73.93676 | 38361 ft | 548 kts | 1° |
| 2026-05-08 03:53 | -49.60013 | -73.92689 | 38351 ft | 551 kts | 1° |
| 2026-05-08 03:53 | -49.52354 | -73.91697 | 38349 ft | 552 kts | 1° |
| 2026-05-08 03:54 | -49.44685 | -73.90705 | 38340 ft | 554 kts | 1° |
| 2026-05-08 03:54 | -49.36983 | -73.89714 | 38338 ft | 556 kts | 1° |
| 2026-05-08 03:55 | -49.29265 | -73.88721 | 38353 ft | 556 kts | 1° |
| 2026-05-08 03:55 | -49.21538 | -73.87734 | 38324 ft | 559 kts | 1° |
| 2026-05-08 03:56 | -49.13779 | -73.86743 | 38363 ft | 559 kts | 1° |
| 2026-05-08 03:56 | -49.06022 | -73.85754 | 38337 ft | 558 kts | 1° |
| 2026-05-08 03:57 | -48.99608 | -73.84936 | 38339 ft | 556 kts | 1° |
| 2026-05-08 03:57 | -48.91912 | -73.83962 | 38343 ft | 555 kts | 1° |
| 2026-05-08 03:58 | -48.84213 | -73.82992 | 38333 ft | 555 kts | 1° |
| 2026-05-08 03:58 | -48.76516 | -73.82024 | 38324 ft | 555 kts | 1° |
| 2026-05-08 03:59 | -48.68802 | -73.81055 | 38338 ft | 557 kts | 1° |
| 2026-05-08 03:59 | -48.61059 | -73.80087 | 38327 ft | 559 kts | 1° |
| 2026-05-08 04:00 | -48.53307 | -73.79119 | 38355 ft | 560 kts | 1° |
| 2026-05-08 04:00 | -48.45526 | -73.78152 | 38323 ft | 563 kts | 1° |
| 2026-05-08 04:01 | -48.37730 | -73.77185 | 38321 ft | 561 kts | 1° |
| 2026-05-08 04:01 | -48.29962 | -73.76224 | 38319 ft | 559 kts | 1° |
| 2026-05-08 04:02 | -48.22218 | -73.75270 | 38310 ft | 557 kts | 1° |
| 2026-05-08 04:02 | -48.14504 | -73.74331 | 38283 ft | 556 kts | 1° |
| 2026-05-08 04:03 | -48.06838 | -73.73402 | 38314 ft | 557 kts | 1° |
| 2026-05-08 04:03 | -47.95218 | -73.71996 | 38312 ft | 560 kts | 1° |
| 2026-05-08 04:04 | -47.87442 | -73.71060 | 38323 ft | 562 kts | 1° |
| 2026-05-08 04:04 | -47.79645 | -73.70121 | 38320 ft | 562 kts | 1° |
| 2026-05-08 04:05 | -47.71845 | -73.69184 | 38303 ft | 562 kts | 1° |
| 2026-05-08 04:05 | -47.64058 | -73.68254 | 38306 ft | 561 kts | 1° |
| 2026-05-08 04:06 | -47.56277 | -73.67326 | 38320 ft | 560 kts | 1° |
| 2026-05-08 04:06 | -47.48518 | -73.66404 | 38317 ft | 559 kts | 1° |
| 2026-05-08 04:07 | -47.40763 | -73.65485 | 38323 ft | 558 kts | 1° |
| 2026-05-08 04:07 | -47.33009 | -73.64570 | 38312 ft | 559 kts | 1° |
| 2026-05-08 04:08 | -47.25302 | -73.63663 | 38278 ft | 559 kts | 1° |
| 2026-05-08 04:08 | -47.17535 | -73.62750 | 38305 ft | 560 kts | 1° |
| 2026-05-08 04:09 | -47.09748 | -73.61839 | 38297 ft | 562 kts | 1° |
| 2026-05-08 04:09 | -47.01943 | -73.60926 | 38285 ft | 563 kts | 1° |
| 2026-05-08 04:10 | -46.94116 | -73.60206 | 38297 ft | 562 kts | 358° |
| 2026-05-08 04:10 | -46.86295 | -73.59921 | 38288 ft | 562 kts | 357° |
| 2026-05-08 04:11 | -46.78461 | -73.59671 | 38272 ft | 563 kts | 358° |
| 2026-05-08 04:11 | -46.70617 | -73.59342 | 38286 ft | 564 kts | 358° |
| 2026-05-08 04:12 | -46.62805 | -73.58971 | 38298 ft | 565 kts | 358° |
| 2026-05-08 04:12 | -46.54961 | -73.58595 | 38295 ft | 562 kts | 358° |
| 2026-05-08 04:13 | -46.47149 | -73.58227 | 38273 ft | 558 kts | 358° |
| 2026-05-08 04:13 | -46.39381 | -73.57870 | 38235 ft | 557 kts | 358° |
| 2026-05-08 04:14 | -46.31624 | -73.57516 | 38268 ft | 558 kts | 358° |
| 2026-05-08 04:14 | -46.23838 | -73.57158 | 38275 ft | 561 kts | 358° |
| 2026-05-08 04:15 | -46.16005 | -73.56799 | 38248 ft | 564 kts | 358° |
| 2026-05-08 04:15 | -46.08156 | -73.56441 | 38266 ft | 565 kts | 358° |
| 2026-05-08 04:16 | -46.00287 | -73.56083 | 38260 ft | 567 kts | 358° |
| 2026-05-08 04:16 | -45.92403 | -73.55724 | 38263 ft | 567 kts | 358° |
| 2026-05-08 04:17 | -45.84569 | -73.55368 | 38253 ft | 566 kts | 358° |
| 2026-05-08 04:17 | -45.76704 | -73.55012 | 38234 ft | 564 kts | 358° |
| 2026-05-08 04:18 | -45.68869 | -73.54658 | 38246 ft | 562 kts | 358° |
| 2026-05-08 04:18 | -45.61059 | -73.54308 | 38250 ft | 560 kts | 358° |
| 2026-05-08 04:19 | -45.53279 | -73.53960 | 38251 ft | 559 kts | 358° |
| 2026-05-08 04:19 | -45.45513 | -73.53614 | 38253 ft | 558 kts | 358° |
| 2026-05-08 04:20 | -45.37747 | -73.53268 | 38248 ft | 558 kts | 358° |
| 2026-05-08 04:20 | -45.29980 | -73.52924 | 38241 ft | 559 kts | 358° |
| 2026-05-08 04:21 | -45.22192 | -73.52578 | 38242 ft | 559 kts | 358° |
| 2026-05-08 04:21 | -45.14410 | -73.52170 | 38221 ft | 560 kts | 0° |
| 2026-05-08 04:22 | -45.06638 | -73.51222 | 38240 ft | 561 kts | 2° |
| 2026-05-08 04:22 | -44.98847 | -73.50185 | 38240 ft | 562 kts | 2° |
| 2026-05-08 04:23 | -44.91094 | -73.49181 | 38227 ft | 563 kts | 1° |
| 2026-05-08 04:23 | -44.83275 | -73.48202 | 38234 ft | 564 kts | 1° |
| 2026-05-08 04:24 | -44.75454 | -73.47234 | 38235 ft | 564 kts | 1° |
| 2026-05-08 04:24 | -44.67616 | -73.46264 | 38227 ft | 564 kts | 1° |
| 2026-05-08 04:25 | -44.59795 | -73.45295 | 38234 ft | 564 kts | 1° |
| 2026-05-08 04:25 | -44.51977 | -73.44329 | 38211 ft | 564 kts | 1° |
| 2026-05-08 04:26 | -44.44166 | -73.43367 | 38229 ft | 564 kts | 1° |
| 2026-05-08 04:26 | -44.36403 | -73.42414 | 38222 ft | 564 kts | 1° |
| 2026-05-08 04:27 | -44.28592 | -73.41457 | 38221 ft | 563 kts | 1° |
| 2026-05-08 04:27 | -44.20771 | -73.40503 | 38262 ft | 564 kts | 1° |
| 2026-05-08 04:28 | -44.12938 | -73.39549 | 38205 ft | 565 kts | 1° |
| 2026-05-08 04:28 | -44.05114 | -73.38597 | 38216 ft | 565 kts | 1° |
| 2026-05-08 04:29 | -43.97279 | -73.37647 | 38218 ft | 565 kts | 1° |
| 2026-05-08 04:29 | -43.89443 | -73.36700 | 38220 ft | 565 kts | 0° |
| 2026-05-08 04:30 | -43.81615 | -73.35757 | 38215 ft | 565 kts | 0° |
| 2026-05-08 04:30 | -43.73777 | -73.34815 | 38209 ft | 566 kts | 1° |
| 2026-05-08 04:31 | -43.65922 | -73.33873 | 38214 ft | 566 kts | 1° |
| 2026-05-08 04:31 | -43.58068 | -73.32933 | 38212 ft | 567 kts | 1° |
| 2026-05-08 04:32 | -43.50251 | -73.32000 | 38203 ft | 567 kts | 0° |
| 2026-05-08 04:32 | -43.42382 | -73.31064 | 38211 ft | 567 kts | 0° |
| 2026-05-08 04:33 | -43.34510 | -73.30130 | 38193 ft | 568 kts | 0° |
| 2026-05-08 04:33 | -43.26634 | -73.29199 | 38208 ft | 568 kts | 1° |
| 2026-05-08 04:34 | -43.18764 | -73.28267 | 38202 ft | 567 kts | 1° |
| 2026-05-08 04:34 | -43.10908 | -73.27359 | 38194 ft | 566 kts | 0° |
| 2026-05-08 04:35 | -43.03055 | -73.26532 | 38200 ft | 565 kts | 360° |
| 2026-05-08 04:35 | -42.95209 | -73.25721 | 38180 ft | 565 kts | 359° |
| 2026-05-08 04:36 | -42.87361 | -73.24899 | 38197 ft | 566 kts | 360° |
| 2026-05-08 04:36 | -42.79542 | -73.24075 | 38199 ft | 567 kts | 360° |
| 2026-05-08 04:37 | -42.71675 | -73.23248 | 38194 ft | 568 kts | 359° |
| 2026-05-08 04:37 | -42.63778 | -73.22420 | 38203 ft | 569 kts | 359° |
| 2026-05-08 04:38 | -42.55861 | -73.21593 | 38179 ft | 571 kts | 359° |
| 2026-05-08 04:38 | -42.47929 | -73.20766 | 38196 ft | 572 kts | 359° |
| 2026-05-08 04:39 | -42.39978 | -73.19934 | 38199 ft | 574 kts | 359° |
| 2026-05-08 04:39 | -42.32005 | -73.19047 | 38193 ft | 575 kts | 359° |
| 2026-05-08 04:40 | -42.24074 | -73.18147 | 38192 ft | 576 kts | 359° |
| 2026-05-08 04:40 | -42.16073 | -73.17249 | 38177 ft | 577 kts | 359° |
| 2026-05-08 04:41 | -42.08063 | -73.16358 | 38190 ft | 577 kts | 359° |
| 2026-05-08 04:41 | -42.00056 | -73.15472 | 38189 ft | 577 kts | 359° |
| 2026-05-08 04:42 | -41.92103 | -73.14593 | 38188 ft | 577 kts | 359° |
| 2026-05-08 04:42 | -41.84094 | -73.13710 | 38187 ft | 577 kts | 359° |
| 2026-05-08 04:43 | -41.76092 | -73.12829 | 38163 ft | 577 kts | 359° |
| 2026-05-08 04:43 | -41.68088 | -73.11951 | 38171 ft | 577 kts | 358° |
| 2026-05-08 04:44 | -41.60088 | -73.11076 | 38175 ft | 577 kts | 358° |
| 2026-05-08 04:44 | -41.52080 | -73.10201 | 38166 ft | 578 kts | 358° |
| 2026-05-08 04:45 | -41.44063 | -73.09327 | 38185 ft | 579 kts | 359° |
| 2026-05-08 04:45 | -41.37386 | -73.08257 | 38190 ft | 582 kts | 2° |
| 2026-05-08 04:46 | -41.29365 | -73.06684 | 38185 ft | 583 kts | 3° |
| 2026-05-08 04:46 | -41.20019 | -73.04887 | 38180 ft | 584 kts | 2° |
| 2026-05-08 04:47 | -41.13279 | -73.03632 | 38169 ft | 584 kts | 2° |
| 2026-05-08 04:47 | -41.05223 | -73.02133 | 38172 ft | 584 kts | 2° |
| 2026-05-08 04:48 | -40.97215 | -73.00657 | 38175 ft | 584 kts | 2° |
| 2026-05-08 04:48 | -40.89170 | -72.99179 | 38157 ft | 584 kts | 2° |
| 2026-05-08 04:49 | -40.81116 | -72.97700 | 38173 ft | 584 kts | 2° |
| 2026-05-08 04:49 | -40.73059 | -72.96224 | 38184 ft | 584 kts | 2° |
| 2026-05-08 04:50 | -40.65005 | -72.94752 | 38229 ft | 584 kts | 2° |
| 2026-05-08 04:50 | -40.56941 | -72.93283 | 38186 ft | 585 kts | 2° |
| 2026-05-08 04:51 | -40.48935 | -72.91826 | 38163 ft | 585 kts | 2° |
| 2026-05-08 04:51 | -40.40872 | -72.90363 | 38176 ft | 584 kts | 2° |
| 2026-05-08 04:52 | -40.32813 | -72.88906 | 38179 ft | 584 kts | 1° |
| 2026-05-08 04:52 | -40.24740 | -72.87563 | 38157 ft | 584 kts | 1° |
| 2026-05-08 04:53 | -40.16667 | -72.86286 | 38180 ft | 585 kts | 1° |
| 2026-05-08 04:53 | -40.08572 | -72.84992 | 38184 ft | 586 kts | 1° |
| 2026-05-08 04:54 | -40.00520 | -72.83690 | 38171 ft | 587 kts | 1° |
| 2026-05-08 04:54 | -39.92412 | -72.82377 | 38187 ft | 588 kts | 1° |
| 2026-05-08 04:55 | -39.84291 | -72.81069 | 38180 ft | 588 kts | 1° |
| 2026-05-08 04:55 | -39.76158 | -72.79764 | 38188 ft | 588 kts | 1° |
| 2026-05-08 04:56 | -39.68028 | -72.78433 | 38189 ft | 589 kts | 2° |
| 2026-05-08 04:56 | -39.59900 | -72.76932 | 38161 ft | 589 kts | 2° |
| 2026-05-08 04:57 | -39.51838 | -72.75420 | 38182 ft | 589 kts | 2° |
| 2026-05-08 04:57 | -39.43724 | -72.73940 | 38201 ft | 588 kts | 2° |
| 2026-05-08 04:58 | -39.35602 | -72.72468 | 38181 ft | 588 kts | 2° |
| 2026-05-08 04:58 | -39.27511 | -72.71012 | 38193 ft | 587 kts | 2° |
| 2026-05-08 04:59 | -39.19423 | -72.69558 | 38213 ft | 586 kts | 2° |
| 2026-05-08 04:59 | -39.11339 | -72.68107 | 38218 ft | 585 kts | 2° |
| 2026-05-08 05:00 | -39.03280 | -72.66665 | 38234 ft | 585 kts | 2° |
| 2026-05-08 05:00 | -38.95209 | -72.65223 | 38243 ft | 585 kts | 2° |
| 2026-05-08 05:01 | -38.87151 | -72.63527 | 38239 ft | 589 kts | 7° |
| 2026-05-08 05:01 | -38.79156 | -72.61186 | 38236 ft | 590 kts | 8° |
| 2026-05-08 05:02 | -38.71151 | -72.58827 | 38213 ft | 591 kts | 8° |
| 2026-05-08 05:02 | -38.63133 | -72.56531 | 38207 ft | 590 kts | 8° |
| 2026-05-08 05:03 | -38.55119 | -72.54257 | 38229 ft | 589 kts | 8° |
| 2026-05-08 05:03 | -38.47160 | -72.51997 | 38200 ft | 590 kts | 8° |
| 2026-05-08 05:04 | -38.39162 | -72.49742 | 38240 ft | 589 kts | 7° |
| 2026-05-08 05:04 | -38.31154 | -72.47490 | 38237 ft | 589 kts | 7° |
| 2026-05-08 05:05 | -38.23161 | -72.45244 | 38231 ft | 588 kts | 7° |
| 2026-05-08 05:05 | -38.15168 | -72.43000 | 38248 ft | 587 kts | 7° |
| 2026-05-08 05:06 | -38.07191 | -72.40763 | 38244 ft | 587 kts | 7° |
| 2026-05-08 05:06 | -37.99217 | -72.38531 | 38231 ft | 586 kts | 7° |
| 2026-05-08 05:07 | -37.91256 | -72.36308 | 38261 ft | 585 kts | 7° |
| 2026-05-08 05:07 | -37.83349 | -72.34106 | 38278 ft | 584 kts | 7° |
| 2026-05-08 05:08 | -37.75410 | -72.31899 | 38238 ft | 584 kts | 7° |
| 2026-05-08 05:08 | -37.67471 | -72.29696 | 38266 ft | 583 kts | 7° |
| 2026-05-08 05:09 | -37.59564 | -72.27445 | 38271 ft | 583 kts | 8° |
| 2026-05-08 05:09 | -37.51681 | -72.25022 | 38308 ft | 583 kts | 9° |
| 2026-05-08 05:10 | -37.39906 | -72.21376 | 38280 ft | 583 kts | 9° |
| 2026-05-08 05:11 | -37.32024 | -72.18978 | 38282 ft | 582 kts | 9° |
| 2026-05-08 05:11 | -37.24152 | -72.16600 | 38272 ft | 581 kts | 9° |
| 2026-05-08 05:12 | -37.16301 | -72.14231 | 38274 ft | 580 kts | 9° |
| 2026-05-08 05:12 | -37.08443 | -72.11863 | 38277 ft | 580 kts | 9° |
| 2026-05-08 05:13 | -37.00600 | -72.09503 | 38276 ft | 579 kts | 9° |
| 2026-05-08 05:13 | -36.92761 | -72.07150 | 38288 ft | 579 kts | 9° |
| 2026-05-08 05:14 | -36.84926 | -72.04803 | 38283 ft | 579 kts | 8° |
| 2026-05-08 05:14 | -36.77091 | -72.02462 | 38269 ft | 579 kts | 9° |
| 2026-05-08 05:15 | -36.69312 | -72.00141 | 38284 ft | 578 kts | 8° |
| 2026-05-08 05:15 | -36.61483 | -71.97810 | 38289 ft | 578 kts | 8° |
| 2026-05-08 05:16 | -36.53662 | -71.95487 | 38284 ft | 578 kts | 9° |
| 2026-05-08 05:16 | -36.45842 | -71.93168 | 38291 ft | 578 kts | 8° |
| 2026-05-08 05:17 | -36.38016 | -71.90853 | 38361 ft | 577 kts | 8° |
| 2026-05-08 05:17 | -36.30185 | -71.88542 | 38275 ft | 579 kts | 8° |
| 2026-05-08 05:18 | -36.22387 | -71.86245 | 38288 ft | 579 kts | 8° |
| 2026-05-08 05:18 | -36.14542 | -71.83939 | 38296 ft | 580 kts | 8° |
| 2026-05-08 05:19 | -36.06682 | -71.81633 | 38259 ft | 580 kts | 8° |
| 2026-05-08 05:19 | -35.98832 | -71.79333 | 38298 ft | 580 kts | 8° |
| 2026-05-08 05:20 | -35.90970 | -71.77036 | 38292 ft | 580 kts | 8° |
| 2026-05-08 05:20 | -35.83119 | -71.74746 | 38293 ft | 580 kts | 8° |
| 2026-05-08 05:21 | -35.75268 | -71.72462 | 38290 ft | 579 kts | 8° |
| 2026-05-08 05:21 | -35.67418 | -71.70181 | 38297 ft | 579 kts | 8° |
| 2026-05-08 05:22 | -35.59576 | -71.67908 | 38293 ft | 579 kts | 8° |
| 2026-05-08 05:22 | -35.51781 | -71.65653 | 38286 ft | 578 kts | 8° |
| 2026-05-08 05:23 | -35.43942 | -71.63389 | 38289 ft | 579 kts | 8° |
| 2026-05-08 05:23 | -35.36101 | -71.61125 | 38293 ft | 579 kts | 8° |
| 2026-05-08 05:24 | -35.28261 | -71.58863 | 38277 ft | 579 kts | 8° |
| 2026-05-08 05:24 | -35.20413 | -71.56602 | 38291 ft | 579 kts | 8° |
| 2026-05-08 05:25 | -35.12570 | -71.54349 | 38310 ft | 580 kts | 8° |
| 2026-05-08 05:25 | -35.04709 | -71.52093 | 38261 ft | 579 kts | 8° |
| 2026-05-08 05:26 | -34.96875 | -71.49850 | 38288 ft | 579 kts | 7° |
| 2026-05-08 05:26 | -34.89036 | -71.47613 | 38299 ft | 578 kts | 7° |
| 2026-05-08 05:27 | -34.81195 | -71.45377 | 38253 ft | 579 kts | 8° |
| 2026-05-08 05:27 | -34.73417 | -71.43162 | 38292 ft | 578 kts | 8° |
| 2026-05-08 05:28 | -34.65587 | -71.40935 | 38278 ft | 578 kts | 8° |
| 2026-05-08 05:28 | -34.57943 | -71.37745 | 38284 ft | 583 kts | 19° |
| 2026-05-08 05:29 | -34.50494 | -71.33793 | 38267 ft | 584 kts | 21° |
| 2026-05-08 05:29 | -34.43025 | -71.29910 | 38277 ft | 583 kts | 19° |
| 2026-05-08 05:30 | -34.35502 | -71.26201 | 38266 ft | 585 kts | 18° |
| 2026-05-08 05:30 | -34.27937 | -71.22532 | 38251 ft | 585 kts | 18° |
| 2026-05-08 05:31 | -34.20379 | -71.18851 | 38269 ft | 585 kts | 19° |
| 2026-05-08 05:31 | -34.12843 | -71.15170 | 38226 ft | 584 kts | 19° |
| 2026-05-08 05:32 | -34.05306 | -71.11499 | 37812 ft | 587 kts | 18° |
| 2026-05-08 05:32 | -34.01513 | -71.09655 | 37139 ft | 587 kts | 19° |
| 2026-05-08 05:32 | -33.97750 | -71.07961 | 36348 ft | 583 kts | 11° |
| 2026-05-08 05:32 | -33.93796 | -71.07126 | 35465 ft | 571 kts | 353° |
| 2026-05-08 05:33 | -33.89853 | -71.07243 | 34580 ft | 567 kts | 349° |
| 2026-05-08 05:33 | -33.85894 | -71.07482 | 33605 ft | 571 kts | 350° |
| 2026-05-08 05:33 | -33.81907 | -71.07708 | 32606 ft | 575 kts | 351° |
| 2026-05-08 05:33 | -33.77905 | -71.07883 | 31753 ft | 576 kts | 352° |
| 2026-05-08 05:34 | -33.73890 | -71.08008 | 30898 ft | 577 kts | 352° |
| 2026-05-08 05:34 | -33.69879 | -71.08096 | 30050 ft | 576 kts | 353° |
| 2026-05-08 05:34 | -33.65879 | -71.08169 | 29223 ft | 573 kts | 353° |
| 2026-05-08 05:34 | -33.61922 | -71.08238 | 28639 ft | 564 kts | 353° |
| 2026-05-08 05:35 | -33.59337 | -71.08286 | 28268 ft | 558 kts | 353° |
| 2026-05-08 05:35 | -33.55483 | -71.08361 | 27698 ft | 550 kts | 353° |
| 2026-05-08 05:35 | -33.51683 | -71.08442 | 27106 ft | 544 kts | 353° |
| 2026-05-08 05:35 | -33.47925 | -71.08526 | 26497 ft | 537 kts | 352° |
| 2026-05-08 05:36 | -33.44206 | -71.08611 | 25960 ft | 530 kts | 352° |
| 2026-05-08 05:36 | -33.40536 | -71.08695 | 25418 ft | 525 kts | 352° |
| 2026-05-08 05:36 | -33.36906 | -71.08777 | 24865 ft | 519 kts | 352° |
| 2026-05-08 05:36 | -33.33313 | -71.08860 | 24317 ft | 514 kts | 352° |
| 2026-05-08 05:37 | -33.29743 | -71.08941 | 23814 ft | 509 kts | 352° |
| 2026-05-08 05:37 | -33.26222 | -71.09021 | 23204 ft | 504 kts | 353° |
| 2026-05-08 05:37 | -33.22735 | -71.09099 | 22619 ft | 499 kts | 353° |
| 2026-05-08 05:37 | -33.19282 | -71.09099 | 22065 ft | 494 kts | 358° |
| 2026-05-08 05:38 | -33.15901 | -71.08551 | 21409 ft | 497 kts | 7° |
| 2026-05-08 05:38 | -33.12530 | -71.07672 | 20795 ft | 494 kts | 9° |
| 2026-05-08 05:38 | -33.09183 | -71.06805 | 20311 ft | 489 kts | 8° |
| 2026-05-08 05:38 | -33.05905 | -71.06037 | 20198 ft | 473 kts | 7° |
| 2026-05-08 05:39 | -33.02726 | -71.05347 | 20088 ft | 453 kts | 6° |
| 2026-05-08 05:39 | -32.99719 | -71.04704 | 19895 ft | 423 kts | 6° |
| 2026-05-08 05:39 | -32.96917 | -71.04101 | 19697 ft | 396 kts | 6° |
| 2026-05-08 05:39 | -32.94301 | -71.03393 | 19322 ft | 380 kts | 20° |
| 2026-05-08 05:40 | -32.92082 | -71.01803 | 18746 ft | 369 kts | 46° |
| 2026-05-08 05:40 | -32.90541 | -70.99474 | 18097 ft | 350 kts | 69° |
| 2026-05-08 05:40 | -32.89729 | -70.96855 | 17585 ft | 326 kts | 87° |
| 2026-05-08 05:40 | -32.89430 | -70.94255 | 16974 ft | 309 kts | 97° |
| 2026-05-08 05:41 | -32.89589 | -70.91791 | 16300 ft | 289 kts | 116° |
| 2026-05-08 05:41 | -32.90198 | -70.89563 | 15621 ft | 281 kts | 118° |
| 2026-05-08 05:41 | -32.90814 | -70.87372 | 15015 ft | 277 kts | 117° |
| 2026-05-08 05:41 | -32.91549 | -70.85316 | 14346 ft | 262 kts | 134° |
| 2026-05-08 05:42 | -32.92861 | -70.83950 | 13558 ft | 246 kts | 158° |
| 2026-05-08 05:42 | -32.94451 | -70.83276 | 12746 ft | 242 kts | 172° |
| 2026-05-08 05:42 | -32.96126 | -70.82983 | 11933 ft | 245 kts | 174° |
| 2026-05-08 05:42 | -32.97822 | -70.82680 | 11158 ft | 248 kts | 173° |
| 2026-05-08 05:43 | -32.99544 | -70.82443 | 10399 ft | 250 kts | 175° |
| 2026-05-08 05:43 | -33.01283 | -70.82294 | 9674 ft | 251 kts | 176° |
| 2026-05-08 05:43 | -33.02997 | -70.82187 | 9062 ft | 247 kts | 177° |
| 2026-05-08 05:43 | -33.04718 | -70.82093 | 8434 ft | 241 kts | 177° |
| 2026-05-08 05:44 | -33.06357 | -70.82007 | 7725 ft | 231 kts | 177° |
| 2026-05-08 05:44 | -33.07940 | -70.81924 | 6848 ft | 230 kts | 177° |
| 2026-05-08 05:44 | -33.09485 | -70.81844 | 6470 ft | 214 kts | 177° |
| 2026-05-08 05:44 | -33.10935 | -70.81767 | 6221 ft | 202 kts | 177° |
| 2026-05-08 05:45 | -33.12286 | -70.81696 | 5980 ft | 186 kts | 177° |
| 2026-05-08 05:45 | -33.13529 | -70.81630 | 5768 ft | 171 kts | 176° |
| 2026-05-08 05:45 | -33.14673 | -70.81569 | 5539 ft | 158 kts | 176° |
| 2026-05-08 05:45 | -33.15739 | -70.81513 | 5351 ft | 151 kts | 176° |
| 2026-05-08 05:46 | -33.16788 | -70.81459 | 5192 ft | 151 kts | 176° |
| 2026-05-08 05:46 | -33.17835 | -70.81402 | 5099 ft | 150 kts | 176° |
| 2026-05-08 05:46 | -33.18886 | -70.81345 | 5062 ft | 151 kts | 176° |
| 2026-05-08 05:46 | -33.19944 | -70.81288 | 4956 ft | 154 kts | 176° |
| 2026-05-08 05:47 | -33.21018 | -70.81233 | 4748 ft | 154 kts | 176° |
| 2026-05-08 05:47 | -33.22077 | -70.81177 | 4553 ft | 151 kts | 176° |
| 2026-05-08 05:47 | -33.23125 | -70.81121 | 4349 ft | 150 kts | 176° |
| 2026-05-08 05:47 | -33.24172 | -70.81066 | 4151 ft | 151 kts | 176° |
| 2026-05-08 05:48 | -33.25225 | -70.81010 | 3947 ft | 152 kts | 176° |
| 2026-05-08 05:48 | -33.26285 | -70.80953 | 3757 ft | 153 kts | 176° |
| 2026-05-08 05:48 | -33.27346 | -70.80897 | 3554 ft | 152 kts | 176° |
| 2026-05-08 05:48 | -33.28390 | -70.80843 | 3339 ft | 152 kts | 176° |
| 2026-05-08 05:49 | -33.29441 | -70.80785 | 3135 ft | 151 kts | 176° |
| 2026-05-08 05:49 | -33.30492 | -70.80729 | 2922 ft | 151 kts | 177° |
| 2026-05-08 05:49 | -33.31547 | -70.80674 | 2708 ft | 152 kts | 177° |
| 2026-05-08 05:49 | -33.32601 | -70.80618 | 2487 ft | 152 kts | 177° |
| 2026-05-08 05:50 | -33.33659 | -70.80562 | 2291 ft | 152 kts | 177° |
| 2026-05-08 05:50 | -33.34719 | -70.80505 | 2082 ft | 153 kts | 177° |
| 2026-05-08 05:50 | -33.35783 | -70.80448 | 1879 ft | 153 kts | 177° |
| 2026-05-08 05:50 | -33.36844 | -70.80392 | 1693 ft | 152 kts | 177° |
| 2026-05-08 05:51 | -33.37882 | -70.80337 | 1578 ft | 141 kts | 177° |
| 2026-05-08 05:51 | -33.38669 | -70.80294 | 1579 ft | 80 kts | 177° |
| 2026-05-08 05:51 | -33.39064 | -70.80274 | 1579 ft | 38 kts | 178° |
| 2026-05-08 05:51 | -33.39237 | -70.80253 | 1577 ft | 24 kts | 165° |
| 2026-05-08 05:52 | -33.39330 | -70.80199 | 1576 ft | 14 kts | 147° |
| 2026-05-08 05:52 | -33.39417 | -70.80133 | 1573 ft | 16 kts | 147° |
| 2026-05-08 05:52 | -33.39482 | -70.80082 | 1571 ft | 11 kts | 143° |
| 2026-05-08 05:52 | -33.39523 | -70.80000 | 1570 ft | 12 kts | 101° |
| 2026-05-08 05:53 | -33.39528 | -70.79900 | 1570 ft | 12 kts | 90° |
| 2026-05-08 05:53 | -33.39526 | -70.79807 | 1569 ft | 9 kts | 88° |
| 2026-05-08 05:53 | -33.39523 | -70.79725 | 1569 ft | 10 kts | 88° |
| 2026-05-08 05:53 | -33.39521 | -70.79641 | 1569 ft | 9 kts | 94° |
| 2026-05-08 05:54 | -33.39562 | -70.79612 | 1569 ft | 1 kts | 174° |
| 2026-05-08 05:54 | -33.39572 | -70.79611 | 1569 ft | 2 kts | 174° |
| 2026-05-08 05:54 | -33.39589 | -70.79609 | 1569 ft | 3 kts | 175° |
| 2026-05-08 05:54 | -33.39599 | -70.79608 | 1569 ft | 0 kts | 175° |